Rio Gallegos, Argentina
Current Conditions -  °F | °C
As of 5:00 PM on Monday 22 Dec 2014 (Local Time) from SAWG Reporting Station
Broken Clouds Broken Clouds  
Wind Chill: 61°   Ceiling: 9000
Heat Index: 61°   Visibility: 6mi
Dew Point: 37°   Wind: 35mph
Humidity: 42%   Direction: 230°SW
Pressure: 29.32"   Gusts: 47mph
Location:  51.62°S, 69.24°W
Report Text: SAWG 222000Z 23030G41KT 9999 SCT040BKN090 16/03 Q0993 RESHRA
Loading
Personal Weather Stations






























Interactive Weather Map New forecast layout! Learn more

10-Day Weather Forecast

Advertisements
Track Severe Weather on mobile